Time;durP1;ratioP1;P1;durP2;ratioP2;P2;SDS_P1;SDS_P2;PMS_P1;PMS_P2;Temp;Humidity;BMP_temperature;BMP_pressure;BME280_temperature;BME280_humidity;BME280_pressure;Samples;Min_cycle;Max_cycle;Signal;HPM_P1;HPM_P2
2023/01/03 00:00:35;;;;;;;8.70;2.10;;;;;;;4.72;100.00;101801.19;7388473;19;20471;-64
2023/01/03 00:03:05;;;;;;;7.40;2.00;;;;;;;4.73;100.00;101809.78;7386452;19;20418;-64
2023/01/03 00:05:38;;;;;;;8.40;2.17;;;;;;;4.71;100.00;101819.88;7388035;19;20384;-64
2023/01/03 00:08:07;;;;;;;10.03;2.20;;;;;;;4.74;100.00;101829.44;7387526;19;20423;-64
2023/01/03 00:10:37;;;;;;;12.07;2.53;;;;;;;4.75;100.00;101835.44;7388830;19;20398;-63
2023/01/03 00:13:04;;;;;;;5.70;1.30;;;;;;;4.75;100.00;101846.56;7386712;19;20422;-63
2023/01/03 00:15:36;;;;;;;6.40;1.93;;;;;;;4.77;100.00;101836.50;7388624;19;20746;-63
2023/01/03 00:18:06;;;;;;;5.63;1.90;;;;;;;4.73;100.00;101853.25;7387283;19;20422;-63
2023/01/03 00:20:38;;;;;;;6.97;2.00;;;;;;;4.78;100.00;101851.06;7388697;19;20415;-63
2023/01/03 00:23:07;;;;;;;9.13;2.13;;;;;;;4.73;100.00;101866.03;7386772;19;20944;-63
2023/01/03 00:25:37;;;;;;;6.40;2.30;;;;;;;4.77;100.00;101869.72;7390496;19;20415;-63
2023/01/03 00:28:07;;;;;;;9.67;2.27;;;;;;;4.78;100.00;101881.75;7387618;19;20408;-64
2023/01/03 00:30:37;;;;;;;10.73;2.40;;;;;;;4.76;100.00;101878.16;7396193;19;20427;-64
2023/01/03 00:33:06;;;;;;;8.77;2.50;;;;;;;4.74;100.00;101885.72;7393919;19;20407;-64
2023/01/03 00:35:39;;;;;;;7.13;1.87;;;;;;;4.70;100.00;101899.91;7398436;19;20909;-64
2023/01/03 00:38:08;;;;;;;5.60;1.80;;;;;;;4.66;100.00;101891.84;7394032;19;20396;-63
2023/01/03 00:40:38;;;;;;;7.83;2.17;;;;;;;4.62;100.00;101910.25;7396177;19;20384;-64
2023/01/03 00:45:49;;;;;;;10.57;2.67;;;;;;;4.56;100.00;101914.06;7394405;19;20387;-64
2023/01/03 00:48:19;;;;;;;10.10;1.93;;;;;;;4.55;100.00;101916.47;7393587;19;20399;-64
2023/01/03 00:50:51;;;;;;;9.20;2.30;;;;;;;4.54;100.00;101917.25;7395480;19;20388;-64
2023/01/03 00:53:20;;;;;;;12.53;2.10;;;;;;;4.53;100.00;101920.59;7397201;19;20407;-63
2023/01/03 00:55:50;;;;;;;5.97;1.50;;;;;;;4.47;100.00;101928.63;7395805;19;20419;-64
2023/01/03 00:58:20;;;;;;;10.20;2.00;;;;;;;4.45;100.00;101927.59;7393261;19;20399;-64
2023/01/03 01:00:49;;;;;;;12.83;2.10;;;;;;;4.43;100.00;101927.47;7394819;19;20937;-64
2023/01/03 01:03:19;;;;;;;6.87;1.93;;;;;;;4.42;100.00;101933.31;7392199;19;20414;-63
2023/01/03 01:05:51;;;;;;;7.07;1.17;;;;;;;4.38;100.00;101935.50;7393960;19;20384;-64
2023/01/03 01:08:21;;;;;;;12.97;2.20;;;;;;;4.37;100.00;101937.19;7392930;19;21103;-64
2023/01/03 01:13:33;;;;;;;6.57;1.50;;;;;;;4.27;100.00;101952.47;7394673;19;20423;-64
2023/01/03 01:16:04;;;;;;;9.50;2.47;;;;;;;4.33;100.00;101953.88;7394931;19;20404;-64
2023/01/03 01:18:34;;;;;;;10.63;1.23;;;;;;;4.22;100.00;101964.84;7392681;19;20957;-64
2023/01/03 01:21:09;;;;;;;7.97;1.70;;;;;;;4.16;100.00;101966.88;7394001;19;20391;-64
2023/01/03 01:23:40;;;;;;;2.90;1.30;;;;;;;4.14;100.00;101969.28;7392349;19;20403;-64
2023/01/03 01:26:13;;;;;;;4.90;1.20;;;;;;;4.09;100.00;101962.88;7396694;19;20399;-64
2023/01/03 01:28:43;;;;;;;13.57;1.50;;;;;;;4.13;100.00;101966.59;7389266;19;20410;-64
2023/01/03 01:31:16;;;;;;;5.00;1.70;;;;;;;4.08;100.00;101970.41;7389869;19;20419;-64
2023/01/03 01:33:45;;;;;;;9.70;1.50;;;;;;;4.03;100.00;101970.91;7388026;19;20426;-64
2023/01/03 01:36:21;;;;;;;7.27;1.70;;;;;;;4.01;100.00;101974.09;7390329;19;20402;-64
2023/01/03 01:38:59;;;;;;;11.03;1.30;;;;;;;3.99;100.00;101980.72;7385518;19;20410;-64
2023/01/03 01:44:44;;;;;;;5.40;1.60;;;;;;;3.87;100.00;101975.41;7388769;19;20823;-64
2023/01/03 01:47:18;;;;;;;14.37;2.10;;;;;;;3.87;100.00;101981.44;7391633;19;20410;-64
2023/01/03 01:49:48;;;;;;;7.13;1.40;;;;;;;3.83;100.00;101989.56;7388097;19;20427;-64
2023/01/03 01:52:22;;;;;;;12.40;1.77;;;;;;;3.76;100.00;101990.66;7391345;19;20387;-64
2023/01/03 01:54:52;;;;;;;7.37;1.50;;;;;;;3.76;100.00;101989.78;7388425;19;20415;-63
2023/01/03 01:57:26;;;;;;;4.30;2.00;;;;;;;3.77;100.00;101989.94;7391376;19;21033;-65
2023/01/03 01:59:55;;;;;;;5.33;1.57;;;;;;;3.77;100.00;101997.59;7387727;19;20439;-64
2023/01/03 02:02:25;;;;;;;7.67;1.60;;;;;;;3.74;100.00;102004.97;7391085;19;20387;-64
2023/01/03 02:04:57;;;;;;;7.30;1.60;;;;;;;3.70;100.00;102002.88;7383262;19;20756;-64
2023/01/03 02:07:29;;;;;;;9.80;1.93;;;;;;;3.71;100.00;101996.13;7398120;19;20411;-64
2023/01/03 02:09:59;;;;;;;11.97;1.93;;;;;;;3.67;100.00;101996.59;7391066;19;20438;-63
2023/01/03 02:15:31;;;;;;;10.30;2.00;;;;;;;3.71;100.00;101996.13;7393401;19;20475;-64
2023/01/03 02:18:16;;;;;;;9.17;1.60;;;;;;;3.68;100.00;102003.53;7391970;19;20410;-64
2023/01/03 02:21:08;;;;;;;5.97;1.43;;;;;;;3.62;100.00;102002.22;7393769;19;20419;-64
2023/01/03 02:24:15;;;;;;;5.10;1.67;;;;;;;3.62;100.00;101996.19;7391060;19;20398;-64
2023/01/03 02:26:53;;;;;;;8.77;1.60;;;;;;;3.56;100.00;101999.13;7394384;19;20719;-64
2023/01/03 02:29:38;;;;;;;8.13;1.80;;;;;;;3.58;100.00;102001.81;7390682;19;20399;-63
2023/01/03 02:32:14;;;;;;;4.27;1.93;;;;;;;3.55;100.00;102004.06;7393702;19;20388;-64
2023/01/03 02:34:49;;;;;;;2.93;1.40;;;;;;;3.52;100.00;102007.25;7391199;19;20403;-64
2023/01/03 02:37:24;;;;;;;6.53;1.80;;;;;;;3.50;100.00;102011.31;7393849;19;20391;-64
2023/01/03 02:39:59;;;;;;;6.20;1.50;;;;;;;3.46;100.00;102006.69;7389231;19;20394;-64
2023/01/03 02:45:19;;;;;;;6.83;2.17;;;;;;;3.36;100.00;102010.06;7390953;19;20411;-64
2023/01/03 02:47:54;;;;;;;7.37;1.80;;;;;;;3.34;100.00;102007.34;7393646;19;20381;-64
2023/01/03 02:50:26;;;;;;;7.00;1.80;;;;;;;3.26;100.00;102002.31;7391821;19;20783;-64
2023/01/03 02:52:58;;;;;;;9.80;2.03;;;;;;;3.27;100.00;101993.94;7388981;19;20392;-64
2023/01/03 02:55:30;;;;;;;9.90;3.00;;;;;;;3.28;100.00;101986.38;7395595;19;20921;-64
2023/01/03 02:58:03;;;;;;;12.53;2.80;;;;;;;3.22;100.00;101985.81;7390418;19;20415;-64
2023/01/03 03:00:34;;;;;;;9.30;3.10;;;;;;;3.20;100.00;101972.03;7392048;19;20403;-64
2023/01/03 03:03:14;;;;;;;5.17;2.40;;;;;;;3.19;100.00;101970.25;7392307;19;20382;-64
2023/01/03 03:05:47;;;;;;;9.27;2.70;;;;;;;3.17;100.00;101971.78;7392365;19;20394;-64
2023/01/03 03:08:17;;;;;;;11.13;2.70;;;;;;;3.10;100.00;101958.47;7389808;19;20781;-64
2023/01/03 03:13:41;;;;;;;15.23;3.30;;;;;;;3.09;100.00;101954.09;7385589;19;20411;-63
2023/01/03 03:16:15;;;;;;;11.13;3.70;;;;;;;3.05;100.00;101944.41;7392280;19;20394;-64
2023/01/03 03:18:53;;;;;;;5.63;2.70;;;;;;;3.04;100.00;101942.59;7389987;19;20406;-64
2023/01/03 03:28:33;;;;;;;9.70;3.00;;;;;;;2.88;100.00;101935.22;7389351;19;20913;-64
2023/01/03 03:29:47;;;;;;;7.80;2.70;;;;;;;2.92;100.00;101938.94;7389397;19;20444;-64
2023/01/03 03:32:17;;;;;;;13.90;3.73;;;;;;;2.82;100.00;101944.84;7391804;19;20391;-64
2023/01/03 03:34:49;;;;;;;8.03;2.60;;;;;;;2.86;100.00;101946.91;7389246;19;20802;-64
2023/01/03 03:37:21;;;;;;;14.20;2.20;;;;;;;2.80;100.00;101938.69;7392215;19;20392;-64
2023/01/03 03:45:28;;;;;;;12.67;2.70;;;;;;;2.72;100.00;101950.72;7390940;19;20804;-64
2023/01/03 03:48:02;;;;;;;13.33;2.20;;;;;;;2.68;100.00;101949.53;7387422;19;20854;-64
2023/01/03 03:50:37;;;;;;;7.33;2.60;;;;;;;2.67;100.00;101957.94;7390423;19;20397;-64
2023/01/03 03:53:09;;;;;;;12.33;2.17;;;;;;;2.67;100.00;101957.06;7389117;19;20391;-64
2023/01/03 03:55:42;;;;;;;10.90;3.13;;;;;;;2.61;100.00;101957.38;7391124;19;20383;-64
2023/01/03 03:58:16;;;;;;;10.00;2.50;;;;;;;2.59;100.00;101956.34;7388988;19;20384;-64
2023/01/03 04:00:47;;;;;;;7.03;2.30;;;;;;;2.54;100.00;101962.66;7390402;19;20402;-64
2023/01/03 04:03:17;;;;;;;8.00;2.80;;;;;;;2.58;100.00;101967.28;7387667;19;20399;-64
2023/01/03 04:05:52;;;;;;;12.93;3.20;;;;;;;2.50;100.00;101964.00;7390926;19;20398;-64
2023/01/03 04:08:21;;;;;;;8.43;3.03;;;;;;;2.48;100.00;101959.53;7387005;19;20392;-64
2023/01/03 04:10:51;;;;;;;6.80;2.87;;;;;;;2.46;100.00;101963.59;7390206;19;20415;-64
2023/01/03 04:13:20;;;;;;;10.93;3.20;;;;;;;2.41;100.00;101961.50;7388148;19;20764;-64
2023/01/03 04:15:50;;;;;;;4.93;2.70;;;;;;;2.38;100.00;101962.88;7390445;19;20398;-64
2023/01/03 04:18:19;;;;;;;10.40;3.40;;;;;;;2.36;100.00;101967.81;7388137;19;20407;-64
2023/01/03 04:20:51;;;;;;;7.07;3.10;;;;;;;2.33;100.00;101958.97;7389908;19;20370;-64
2023/01/03 04:23:20;;;;;;;6.63;2.30;;;;;;;2.29;100.00;101966.34;7387967;19;20402;-64
2023/01/03 04:25:50;;;;;;;10.47;3.07;;;;;;;2.29;100.00;101958.69;7390549;19;20392;-64
2023/01/03 04:28:20;;;;;;;16.83;2.53;;;;;;;2.27;100.00;101965.28;7386373;19;21055;-64
2023/01/03 04:30:49;;;;;;;6.77;3.37;;;;;;;2.26;100.00;101968.59;7389471;19;20374;-64
2023/01/03 04:33:19;;;;;;;7.43;3.27;;;;;;;2.22;100.00;101969.06;7391920;19;20422;-64
2023/01/03 04:35:51;;;;;;;7.33;2.70;;;;;;;2.23;100.00;101968.31;7390331;19;20422;-64
2023/01/03 04:38:20;;;;;;;10.80;3.60;;;;;;;2.24;100.00;101967.56;7387508;19;20430;-64
2023/01/03 04:40:50;;;;;;;10.93;3.60;;;;;;;2.23;100.00;101968.31;7389644;19;20414;-64
2023/01/03 04:46:01;;;;;;;8.23;3.27;;;;;;;2.24;100.00;101965.00;7390086;19;20401;-65
2023/01/03 04:48:31;;;;;;;6.23;3.17;;;;;;;2.23;100.00;101967.41;7385933;19;20420;-64
2023/01/03 04:51:03;;;;;;;9.40;3.37;;;;;;;2.23;100.00;101968.31;7389102;19;20377;-65
2023/01/03 04:53:32;;;;;;;11.30;2.97;;;;;;;2.29;100.00;101968.91;7387256;19;20400;-64
2023/01/03 04:56:01;;;;;;;15.23;3.63;;;;;;;2.32;100.00;101967.38;7392701;19;20933;-64
2023/01/03 04:58:31;;;;;;;6.13;3.40;;;;;;;2.33;100.00;101974.25;7390216;19;20846;-64
2023/01/03 05:01:02;;;;;;;12.43;3.50;;;;;;;2.31;100.00;101981.78;7388815;19;20407;-64
2023/01/03 05:03:32;;;;;;;11.70;4.03;;;;;;;2.30;100.00;101982.50;7386076;19;20412;-64
2023/01/03 05:06:05;;;;;;;12.27;3.47;;;;;;;2.29;100.00;101979.09;7389149;19;20386;-64
2023/01/03 05:08:35;;;;;;;6.73;2.77;;;;;;;2.31;100.00;101980.88;7385800;19;20423;-64
2023/01/03 05:11:05;;;;;;;7.53;4.00;;;;;;;2.32;100.00;101987.75;7388545;19;20388;-64
2023/01/03 05:13:34;;;;;;;8.43;3.77;;;;;;;2.34;100.00;101986.25;7386284;19;20423;-64
2023/01/03 05:16:08;;;;;;;18.43;3.87;;;;;;;2.37;100.00;101987.44;7394898;19;20382;-64
2023/01/03 05:18:38;;;;;;;9.93;4.13;;;;;;;2.34;100.00;101997.34;7393661;19;20397;-64
2023/01/03 05:26:39;;;;;;;7.43;3.53;;;;;;;2.41;100.00;102019.22;7396732;19;20370;-64
2023/01/03 05:29:10;;;;;;;12.50;3.90;;;;;;;2.39;100.00;102029.25;7393094;19;20379;-64
2023/01/03 05:31:39;;;;;;;4.80;3.37;;;;;;;2.43;100.00;102038.09;7398707;19;20398;-64
2023/01/03 05:34:09;;;;;;;12.83;3.03;;;;;;;2.41;100.00;102037.06;7392246;19;20429;-64
2023/01/03 05:36:41;;;;;;;4.70;2.20;;;;;;;2.37;100.00;102043.47;7395933;19;20383;-64
2023/01/03 05:39:10;;;;;;;5.43;3.37;;;;;;;2.40;100.00;102051.41;7392627;19;20440;-64
2023/01/03 05:44:22;;;;;;;11.17;2.97;;;;;;;2.42;100.00;102056.66;7393235;19;20403;-64
2023/01/03 05:46:51;;;;;;;14.57;3.47;;;;;;;2.45;100.00;102061.16;7394859;19;20428;-63
2023/01/03 05:49:21;;;;;;;11.10;4.20;;;;;;;2.43;100.00;102053.38;7387340;19;20410;-64
2023/01/03 05:51:53;;;;;;;5.83;3.20;;;;;;;2.46;100.00;102062.97;7395056;19;20611;-63
2023/01/03 05:54:22;;;;;;;8.00;3.03;;;;;;;2.48;100.00;102077.66;7391597;19;20426;-64
2023/01/03 05:56:52;;;;;;;6.60;4.00;;;;;;;2.46;100.00;102081.66;7399185;19;20419;-63
2023/01/03 05:59:22;;;;;;;7.40;3.63;;;;;;;2.45;100.00;102087.53;7391815;19;20781;-63
2023/01/03 06:01:52;;;;;;;10.83;3.70;;;;;;;2.42;100.00;102093.22;7396005;19;20391;-63
2023/01/03 06:04:22;;;;;;;13.10;4.17;;;;;;;2.42;100.00;102087.25;7392057;19;20419;-64
2023/01/03 06:06:54;;;;;;;8.17;4.10;;;;;;;2.44;100.00;102090.81;7394846;19;20722;-64
2023/01/03 06:09:24;;;;;;;16.67;4.30;;;;;;;2.43;100.00;102096.69;7389929;19;20423;-64
2023/01/03 06:11:53;;;;;;;7.83;3.40;;;;;;;2.41;100.00;102100.75;7398935;19;20433;-64
2023/01/03 06:14:23;;;;;;;12.53;6.17;;;;;;;2.40;100.00;102104.00;7391830;19;20378;-63
2023/01/03 06:19:34;;;;;;;13.30;3.83;;;;;;;2.37;100.00;102114.81;7391258;19;20419;-64
2023/01/03 06:22:06;;;;;;;9.23;4.37;;;;;;;2.34;100.00;102109.44;7394005;19;20375;-63
2023/01/03 06:24:39;;;;;;;16.53;5.07;;;;;;;2.33;100.00;102110.19;7390462;19;20414;-63
2023/01/03 06:27:08;;;;;;;13.33;5.10;;;;;;;2.34;100.00;102108.50;7394298;19;20363;-64
2023/01/03 06:29:38;;;;;;;10.37;4.43;;;;;;;2.38;100.00;102110.63;7389879;19;20405;-64
2023/01/03 06:32:07;;;;;;;8.57;4.10;;;;;;;2.40;100.00;102106.56;7393726;19;20388;-64
2023/01/03 06:34:38;;;;;;;13.80;4.50;;;;;;;2.36;100.00;102112.13;7391037;19;20414;-64
2023/01/03 06:37:10;;;;;;;17.30;5.30;;;;;;;2.37;100.00;102109.72;7393705;19;20402;-64
2023/01/03 06:39:40;;;;;;;9.60;4.30;;;;;;;2.33;100.00;102116.91;7391880;19;20764;-63
2023/01/03 06:53:15;;;;;;;19.97;5.13;;;;;;;2.28;100.00;102145.41;7390986;19;20410;-64
2023/01/03 06:55:46;;;;;;;13.10;4.63;;;;;;;2.23;100.00;102151.69;7394834;19;20736;-63
2023/01/03 06:58:24;;;;;;;13.73;5.27;;;;;;;2.24;100.00;102155.13;7390335;19;20403;-64
2023/01/03 07:00:54;;;;;;;13.37;5.20;;;;;;;2.26;100.00;102162.16;7396266;19;20399;-64
2023/01/03 07:03:24;;;;;;;12.00;5.43;;;;;;;2.24;100.00;102163.66;7390561;19;20936;-65
2023/01/03 07:05:53;;;;;;;11.07;5.20;;;;;;;2.17;100.00;102163.81;7392666;19;20415;-64
2023/01/03 07:08:25;;;;;;;7.90;4.33;;;;;;;2.18;100.00;102160.53;7389765;19;20402;-64
2023/01/03 07:10:56;;;;;;;10.90;4.60;;;;;;;2.17;100.00;102163.81;7391824;19;20381;-63
2023/01/03 07:16:07;;;;;;;9.10;4.53;;;;;;;2.12;100.00;102173.56;7390339;19;20399;-63
2023/01/03 07:18:37;;;;;;;8.80;4.33;;;;;;;2.07;100.00;102177.28;7389511;19;20415;-64
2023/01/03 07:21:07;;;;;;;11.10;4.30;;;;;;;2.05;100.00;102186.41;7391495;19;20758;-63
2023/01/03 07:23:39;;;;;;;9.87;4.80;;;;;;;2.02;100.00;102187.00;7388982;19;20424;-63
2023/01/03 07:26:09;;;;;;;9.80;4.50;;;;;;;1.97;100.00;102193.31;7392374;19;20380;-64
2023/01/03 07:28:39;;;;;;;10.17;4.50;;;;;;;1.97;100.00;102190.75;7389227;19;20428;-64
2023/01/03 07:31:09;;;;;;;8.90;4.37;;;;;;;1.96;100.00;102196.59;7391504;19;20396;-64
2023/01/03 07:33:39;;;;;;;10.47;4.77;;;;;;;1.91;100.00;102200.34;7388667;19;20839;-64
2023/01/03 07:36:10;;;;;;;6.50;3.03;;;;;;;1.90;100.00;102213.81;7391488;19;20375;-64
2023/01/03 07:38:45;;;;;;;13.53;5.93;;;;;;;1.93;100.00;102214.09;7386296;19;20425;-64
2023/01/03 07:41:15;;;;;;;8.63;4.00;;;;;;;1.94;100.00;102217.56;7392990;19;20383;-64
2023/01/03 07:43:44;;;;;;;6.80;3.23;;;;;;;1.84;100.00;102226.81;7388090;19;20975;-64
2023/01/03 07:46:17;;;;;;;12.20;3.27;;;;;;;1.83;100.00;102227.56;7391266;19;20379;-64
2023/01/03 07:48:48;;;;;;;10.10;3.77;;;;;;;1.87;100.00;102236.41;7388895;19;20425;-64
2023/01/03 07:51:19;;;;;;;20.93;6.53;;;;;;;1.94;100.00;102232.84;7391384;19;20367;-63
2023/01/03 07:53:54;;;;;;;18.43;5.53;;;;;;;2.01;100.00;102240.34;7387308;19;20392;-65
2023/01/03 07:56:24;;;;;;;9.13;3.87;;;;;;;1.98;100.00;102246.03;7391157;19;20915;-65
2023/01/03 07:58:54;;;;;;;11.73;3.03;;;;;;;1.92;100.00;102250.50;7387647;19;21076;-66
2023/01/03 08:01:25;;;;;;;8.13;4.20;;;;;;;1.94;100.00;102251.53;7387555;19;20761;-66
2023/01/03 08:03:55;;;;;;;11.10;4.13;;;;;;;1.94;100.00;102251.53;7382564;19;20396;-67
2023/01/03 08:06:25;;;;;;;18.47;5.47;;;;;;;1.97;100.00;102259.50;7386840;19;20394;-66
2023/01/03 08:14:22;;;;;;;19.73;7.20;;;;;;;2.04;100.00;102280.50;7383728;19;20485;-66
2023/01/03 08:16:55;;;;;;;6.83;3.30;;;;;;;1.88;100.00;102279.84;7387457;19;20800;-66
2023/01/03 08:19:25;;;;;;;12.63;4.00;;;;;;;1.92;100.00;102280.13;7384640;19;20792;-66
2023/01/03 08:21:54;;;;;;;12.93;4.70;;;;;;;1.91;100.00;102280.88;7387260;19;20385;-65
2023/01/03 08:24:26;;;;;;;10.70;4.93;;;;;;;1.90;100.00;102285.09;7383974;19;21274;-66
2023/01/03 08:26:56;;;;;;;8.70;3.90;;;;;;;1.88;100.00;102291.66;7387396;19;20942;-66
2023/01/03 08:29:25;;;;;;;10.00;3.97;;;;;;;1.89;100.00;102285.81;7382701;19;20814;-65
2023/01/03 08:31:58;;;;;;;9.60;4.13;;;;;;;1.96;100.00;102292.44;7388633;19;20722;-65
2023/01/03 08:34:32;;;;;;;11.43;3.50;;;;;;;1.92;100.00;102291.22;7385281;19;20398;-65
2023/01/03 08:37:03;;;;;;;14.33;5.00;;;;;;;1.92;100.00;102297.97;7389281;19;20955;-65
2023/01/03 08:39:36;;;;;;;12.13;4.70;;;;;;;1.94;100.00;102302.47;7386112;19;20414;-65
2023/01/03 08:42:08;;;;;;;11.80;5.20;;;;;;;1.86;100.00;102303.34;7389750;19;20396;-65
2023/01/03 08:44:38;;;;;;;5.60;2.50;;;;;;;1.83;100.00;102297.91;7384737;19;20428;-65
2023/01/03 08:47:08;;;;;;;16.60;5.73;;;;;;;1.89;100.00;102296.00;7393216;19;20437;-65
2023/01/03 08:49:38;;;;;;;16.80;6.77;;;;;;;1.86;100.00;102298.25;7382395;19;20459;-65
2023/01/03 08:52:07;;;;;;;10.20;4.70;;;;;;;1.80;100.00;102302.72;7396488;19;20376;-65
2023/01/03 08:54:39;;;;;;;12.73;5.37;;;;;;;1.84;100.00;102297.19;7392769;19;20974;-65
2023/01/03 08:57:09;;;;;;;12.00;5.37;;;;;;;1.91;100.00;102294.53;7396736;19;20910;-66
2023/01/03 08:59:38;;;;;;;12.77;4.87;;;;;;;1.94;100.00;102292.28;7393161;19;20406;-65
2023/01/03 09:02:08;;;;;;;9.20;4.43;;;;;;;1.95;100.00;102290.66;7394825;19;20387;-65
2023/01/03 09:04:38;;;;;;;20.20;5.80;;;;;;;1.92;100.00;102288.69;7389832;19;20791;-65
2023/01/03 09:07:07;;;;;;;16.67;6.60;;;;;;;1.87;100.00;102290.78;7395080;19;20379;-65
2023/01/03 09:09:39;;;;;;;15.20;6.90;;;;;;;1.89;100.00;102275.63;7390499;19;20821;-65
2023/01/03 09:12:09;;;;;;;19.40;6.70;;;;;;;1.91;100.00;102276.72;7394786;19;20386;-65
2023/01/03 09:14:38;;;;;;;20.10;7.73;;;;;;;1.92;100.00;102275.03;7390014;19;20788;-65
2023/01/03 09:17:08;;;;;;;14.20;6.60;;;;;;;1.98;100.00;102275.66;7394443;19;20762;-65
2023/01/03 09:19:37;;;;;;;16.77;7.60;;;;;;;2.01;100.00;102276.88;7391613;19;20438;-65
2023/01/03 09:22:07;;;;;;;10.53;6.07;;;;;;;2.09;100.00;102266.56;7394936;19;20754;-64
2023/01/03 09:24:39;;;;;;;15.50;6.43;;;;;;;2.20;100.00;102268.53;7390247;19;20411;-65
2023/01/03 09:27:08;;;;;;;16.47;7.30;;;;;;;2.25;100.00;102262.25;7394746;19;20387;-65
2023/01/03 09:29:38;;;;;;;15.40;7.37;;;;;;;2.35;100.00;102273.38;7390750;19;20444;-65
2023/01/03 09:32:07;;;;;;;17.10;8.00;;;;;;;2.50;100.00;102266.31;7394818;19;20757;-65
2023/01/03 09:34:37;;;;;;;13.93;7.00;;;;;;;2.59;100.00;102272.34;7390259;19;20411;-65
2023/01/03 09:37:06;;;;;;;13.40;7.27;;;;;;;2.80;100.00;102281.19;7394653;19;20406;-64
2023/01/03 09:39:39;;;;;;;17.00;5.47;;;;;;;2.75;100.00;102276.38;7391370;19;20434;-65
2023/01/03 09:44:51;;;;;;;14.57;5.87;;;;;;;2.95;100.00;102306.38;7384586;19;20426;-65
2023/01/03 09:47:23;;;;;;;15.10;6.30;;;;;;;3.09;100.00;102308.63;7398591;19;20379;-66
2023/01/03 09:49:53;;;;;;;9.07;4.80;;;;;;;3.18;100.00;102325.59;7389660;19;20451;-64
2023/01/03 10:03:49;;;;;;;12.00;5.10;;;;;;;3.29;100.00;102375.09;7390217;19;21002;-65
2023/01/03 10:06:28;;;;;;;12.10;4.20;;;;;;;3.23;100.00;102380.50;7393767;19;20802;-65
2023/01/03 10:09:06;;;;;;;11.57;5.30;;;;;;;3.19;100.00;102388.59;7390179;19;20406;-65
2023/01/03 10:11:47;;;;;;;10.33;3.90;;;;;;;3.22;100.00;102392.34;7393904;19;20407;-65
2023/01/03 10:14:27;;;;;;;10.67;4.13;;;;;;;3.17;100.00;102398.66;7388845;19;20423;-65
2023/01/03 10:17:02;;;;;;;17.80;5.23;;;;;;;3.23;100.00;102393.28;7393676;19;20404;-65
2023/01/03 10:19:44;;;;;;;14.03;5.73;;;;;;;3.19;100.00;102409.00;7389990;19;20410;-65
2023/01/03 10:22:17;;;;;;;18.43;6.90;;;;;;;3.22;100.00;102399.09;7393079;19;20387;-66
2023/01/03 10:24:49;;;;;;;11.00;5.07;;;;;;;3.27;100.00;102413.22;7388566;19;20425;-65
2023/01/03 10:27:24;;;;;;;15.30;5.80;;;;;;;3.29;100.00;102401.53;7393194;19;20395;-65
2023/01/03 10:29:55;;;;;;;8.40;5.00;;;;;;;3.18;100.00;102419.97;7388782;19;20457;-65
2023/01/03 10:32:44;;;;;;;21.87;4.53;;;;;;;3.20;100.00;102421.94;7393237;19;20395;-65
2023/01/03 10:35:20;;;;;;;13.77;6.00;;;;;;;3.24;100.00;102412.91;7387454;19;20427;-65
2023/01/03 10:37:52;;;;;;;7.30;2.93;;;;;;;3.23;100.00;102411.13;7396463;19;20395;-64
2023/01/03 10:40:22;;;;;;;11.60;4.50;;;;;;;3.25;100.00;102401.97;7391104;19;20494;-65
2023/01/03 10:42:55;;;;;;;9.50;4.97;;;;;;;3.22;100.00;102399.09;7392817;19;20455;-65
2023/01/03 10:45:24;;;;;;;14.03;4.50;;;;;;;3.24;100.00;102397.63;7392417;19;20419;-64
2023/01/03 10:48:00;;;;;;;15.80;4.90;;;;;;;3.15;100.00;102407.81;7392404;19;20416;-65
2023/01/03 10:50:30;;;;;;;18.47;6.10;;;;;;;3.22;100.00;102399.09;7390032;19;20430;-65
2023/01/03 10:53:01;;;;;;;12.33;5.40;;;;;;;3.21;100.00;102402.41;7389820;19;20392;-65
2023/01/03 10:55:30;;;;;;;11.53;4.03;;;;;;;3.12;100.00;102414.25;7391828;19;20395;-65
2023/01/03 10:58:05;;;;;;;16.63;4.00;;;;;;;3.16;100.00;102407.06;7389800;19;20399;-65
2023/01/03 11:00:35;;;;;;;12.40;4.43;;;;;;;3.30;100.00;102405.88;7390975;19;20371;-65
2023/01/03 11:03:17;;;;;;;12.60;5.67;;;;;;;3.48;100.00;102408.38;7389086;19;20388;-65
2023/01/03 11:05:48;;;;;;;13.10;5.13;;;;;;;3.51;100.00;102404.50;7391939;19;20383;-65
2023/01/03 11:08:21;;;;;;;10.60;5.00;;;;;;;3.60;100.00;102404.47;7389472;19;20411;-65
2023/01/03 11:10:57;;;;;;;13.30;5.50;;;;;;;3.58;100.00;102405.97;7389486;19;20388;-65
2023/01/03 11:13:34;;;;;;;12.83;5.20;;;;;;;3.71;100.00;102402.97;7385883;19;20406;-65
2023/01/03 11:16:05;;;;;;;12.00;5.00;;;;;;;3.57;100.00;102409.28;7391366;19;20451;-65
2023/01/03 11:18:34;;;;;;;10.07;4.43;;;;;;;3.77;100.00;102413.78;7388549;19;20417;-64
2023/01/03 11:21:11;;;;;;;15.33;5.17;;;;;;;4.00;100.00;102411.63;7390826;19;20743;-65
2023/01/03 11:23:59;;;;;;;9.03;4.63;;;;;;;4.08;100.00;102410.69;7387625;19;20426;-65
2023/01/03 11:26:42;;;;;;;9.83;4.20;;;;;;;4.24;100.00;102412.09;7391587;19;20750;-65
2023/01/03 11:29:35;;;;;;;13.27;4.40;;;;;;;4.20;100.00;102416.03;7387546;19;20430;-64
2023/01/03 11:32:15;;;;;;;11.13;4.10;;;;;;;4.08;100.00;102426.00;7389264;19;20792;-65
2023/01/03 11:34:57;;;;;;;7.17;3.47;;;;;;;4.11;100.00;102427.94;7386777;19;20438;-64
2023/01/03 11:37:51;;;;;;;11.70;4.30;;;;;;;4.12;100.00;102417.88;7390763;19;20978;-64
2023/01/03 11:40:27;;;;;;;11.43;4.90;;;;;;;4.21;100.00;102427.16;7389060;19;20415;-64
2023/01/03 11:43:04;;;;;;;10.70;4.87;;;;;;;4.26;100.00;102425.97;7388492;19;20410;-65
2023/01/03 11:45:59;;;;;;;11.67;4.10;;;;;;;4.35;100.00;102426.81;7391017;19;20394;-65
2023/01/03 11:48:51;;;;;;;7.33;3.37;;;;;;;4.40;100.00;102425.59;7387713;19;20770;-63
2023/01/03 11:51:27;;;;;;;6.20;3.00;;;;;;;4.17;100.00;102434.53;7391469;19;20412;-63
2023/01/03 11:54:04;;;;;;;10.90;4.30;;;;;;;4.31;100.00;102440.94;7388972;19;20447;-63
2023/01/03 11:56:36;;;;;;;9.43;3.03;;;;;;;4.29;100.00;102441.56;7392132;19;20390;-63
2023/01/03 11:59:16;;;;;;;6.70;3.00;;;;;;;4.43;100.00;102438.66;7388242;19;20450;-63
2023/01/03 12:02:38;;;;;;;9.43;3.30;;;;;;;4.44;100.00;102448.13;7390929;19;20391;-63
2023/01/03 12:05:20;;;;;;;6.70;3.40;;;;;;;4.55;100.00;102446.56;7386456;19;20447;-65
2023/01/03 12:07:55;;;;;;;13.27;3.00;;;;;;;4.60;100.00;102454.66;7394560;19;20391;-64
2023/01/03 12:10:28;;;;;;;5.30;2.40;;;;;;;4.69;100.00;102459.72;7389486;19;20433;-63
2023/01/03 12:13:17;;;;;;;6.20;2.10;;;;;;;4.63;100.00;102465.19;7388389;19;20392;-64
2023/01/03 12:15:57;;;;;;;8.50;2.63;;;;;;;4.82;100.00;102464.34;7390348;19;20921;-64
2023/01/03 12:18:37;;;;;;;5.60;2.50;;;;;;;4.80;100.00;102465.84;7388134;19;20403;-64
2023/01/03 12:21:12;;;;;;;8.83;2.63;;;;;;;4.69;100.00;102476.00;7388704;19;21005;-63
2023/01/03 12:23:45;;;;;;;11.87;3.47;;;;;;;4.68;100.00;102466.50;7390072;19;20462;-64
2023/01/03 12:26:16;;;;;;;19.90;7.07;;;;;;;4.90;100.00;102475.25;7397952;19;20881;-64
2023/01/03 12:28:50;;;;;;;4.70;2.23;;;;;;;5.11;100.00;102471.22;7395648;19;20453;-64
2023/01/03 12:31:23;;;;;;;9.50;3.90;;;;;;;5.16;100.00;102469.06;7397239;19;20411;-63
2023/01/03 12:34:07;;;;;;;8.10;2.50;;;;;;;5.17;100.00;102476.03;7393721;19;21062;-64
2023/01/03 12:36:42;;;;;;;6.03;2.90;;;;;;;5.11;100.00;102487.50;7395150;19;21030;-64
2023/01/03 12:39:25;;;;;;;5.20;1.90;;;;;;;5.16;100.00;102474.19;7395934;19;20422;-64
2023/01/03 12:42:05;;;;;;;3.63;2.00;;;;;;;5.19;100.00;102479.59;7397807;19;20407;-64
2023/01/03 12:44:38;;;;;;;11.30;2.60;;;;;;;5.27;100.00;102476.06;7392262;19;20427;-64
2023/01/03 12:47:13;;;;;;;7.40;2.27;;;;;;;5.44;100.00;102481.84;7397360;19;20392;-64
2023/01/03 12:49:50;;;;;;;8.93;2.50;;;;;;;5.52;100.00;102474.09;7392628;19;20433;-64
2023/01/03 12:52:20;;;;;;;19.90;6.97;;;;;;;5.67;100.00;102481.34;7395458;19;20486;-65
2023/01/03 12:54:54;;;;;;;4.10;2.07;;;;;;;5.84;100.00;102469.16;7392236;19;20424;-64
2023/01/03 12:57:44;;;;;;;5.20;2.27;;;;;;;5.87;100.00;102475.44;7397549;19;20384;-64
2023/01/03 13:00:22;;;;;;;6.10;2.40;;;;;;;6.13;100.00;102474.28;7393584;19;20450;-65
2023/01/03 13:02:54;;;;;;;4.27;1.97;;;;;;;6.30;100.00;102473.19;7396589;19;20409;-65